createdAt,value
2018-10-19T00:03:31.468Z,21.80
2018-10-19T00:08:36.507Z,23.25
2018-10-19T00:13:41.168Z,22.65
2018-10-19T00:18:46.501Z,23.57
2018-10-19T00:23:51.203Z,22.22
2018-10-19T00:28:55.918Z,25.40
2018-10-19T00:34:00.606Z,23.80
2018-10-19T00:39:13.144Z,24.27
2018-10-19T00:44:24.356Z,24.80
2018-10-19T00:49:28.902Z,24.32
2018-10-19T00:54:33.631Z,26.65
2018-10-19T00:59:38.358Z,24.50
2018-10-19T01:04:42.801Z,25.00
2018-10-19T01:09:47.346Z,25.85
2018-10-19T01:14:51.920Z,25.43
2018-10-19T01:19:56.725Z,26.57
2018-10-19T01:25:01.538Z,26.35
2018-10-19T01:30:07.447Z,27.60
2018-10-19T01:35:13.222Z,27.37
2018-10-19T01:40:17.772Z,26.62
2018-10-19T01:45:22.772Z,28.40
2018-10-19T01:50:27.428Z,28.12
2018-10-19T01:55:32.807Z,26.57
2018-10-19T02:00:37.465Z,25.75
2018-10-19T02:05:42.428Z,28.60
2018-10-19T02:10:47.115Z,26.85
2018-10-19T02:15:51.794Z,27.07
2018-10-19T02:20:56.730Z,25.82
2018-10-19T02:26:01.546Z,28.25
2018-10-19T02:31:06.885Z,28.12
2018-10-19T02:36:11.896Z,27.65
2018-10-19T02:41:16.834Z,28.67
2018-10-19T02:46:21.255Z,26.23
2018-10-19T02:51:26.050Z,29.42
2018-10-19T02:56:30.858Z,26.50
2018-10-19T03:01:35.251Z,26.35
2018-10-19T03:06:39.823Z,28.62
2018-10-19T03:11:50.936Z,27.60
2018-10-19T03:16:57.386Z,26.62
2018-10-19T03:22:02.198Z,28.42
2018-10-19T03:27:07.453Z,27.45
2018-10-19T03:32:12.031Z,27.95
2018-10-19T03:37:16.387Z,28.40
2018-10-19T03:42:20.780Z,30.05
2018-10-19T03:47:25.499Z,29.77
2018-10-19T03:52:30.012Z,27.90
2018-10-19T03:57:34.556Z,29.20
2018-10-19T04:02:39.031Z,28.35
2018-10-19T04:07:43.662Z,26.33
2018-10-19T04:12:54.721Z,28.02
2018-10-19T04:17:59.258Z,27.52
2018-10-19T04:23:06.997Z,30.82
2018-10-19T04:28:11.644Z,27.98
2018-10-19T04:33:16.150Z,34.60
2018-10-19T04:38:20.574Z,28.27
2018-10-19T04:43:24.914Z,27.80
2018-10-19T04:48:29.320Z,27.02
2018-10-19T04:53:33.884Z,25.72
2018-10-19T04:58:38.438Z,28.87
2018-10-19T05:03:43.561Z,29.67
2018-10-19T05:08:48.126Z,26.10
2018-10-19T05:13:52.642Z,26.25
2018-10-19T05:18:57.802Z,28.62
2018-10-19T05:24:02.283Z,26.00
2018-10-19T05:29:07.417Z,29.12
2018-10-19T05:34:12.198Z,29.05
2018-10-19T05:39:17.265Z,28.75
2018-10-19T05:44:21.829Z,31.10
2018-10-19T05:49:26.537Z,33.25
2018-10-19T05:54:31.792Z,30.10
2018-10-19T05:59:36.807Z,32.33
2018-10-19T06:04:41.222Z,32.73
2018-10-19T06:09:46.199Z,29.18
2018-10-19T06:14:50.529Z,28.50
2018-10-19T06:19:55.217Z,31.02
2018-10-19T06:24:59.729Z,28.83
2018-10-19T06:30:04.044Z,31.85
2018-10-19T06:35:08.632Z,34.40
2018-10-19T06:40:13.022Z,30.48
2018-10-19T06:45:18.380Z,31.45
2018-10-19T06:50:22.855Z,31.12
2018-10-19T06:55:28.459Z,31.42
2018-10-19T07:00:32.925Z,30.20
2018-10-19T07:05:37.658Z,30.85
2018-10-19T07:10:43.380Z,29.65
2018-10-19T07:15:48.053Z,28.75
2018-10-19T07:20:52.728Z,29.40
2018-10-19T07:25:57.756Z,30.17
2018-10-19T07:31:02.396Z,30.08
2018-10-19T07:36:06.968Z,30.37
2018-10-19T07:41:13.690Z,30.27
2018-10-19T07:46:24.587Z,31.17
2018-10-19T07:51:29.021Z,29.55
2018-10-19T07:56:33.925Z,30.72
2018-10-19T08:01:38.382Z,31.42
2018-10-19T08:06:42.943Z,32.73
2018-10-19T08:11:47.592Z,32.05
2018-10-19T08:16:52.230Z,31.55
2018-10-19T08:21:56.755Z,30.95
2018-10-19T08:27:01.209Z,31.42
2018-10-19T08:32:07.912Z,31.50
2018-10-19T08:37:13.904Z,31.23
2018-10-19T08:42:18.601Z,31.73
2018-10-19T08:47:24.093Z,31.20
2018-10-19T08:52:28.468Z,31.40
2018-10-19T08:57:33.516Z,31.42
2018-10-19T09:02:37.901Z,31.62
2018-10-19T09:07:42.496Z,31.97
2018-10-19T09:12:47.261Z,32.65
2018-10-19T09:17:51.883Z,32.35
2018-10-19T09:22:56.480Z,31.65
2018-10-19T09:28:01.403Z,32.28
2018-10-19T09:33:06.292Z,31.52
2018-10-19T09:38:11.257Z,33.50
2018-10-19T09:43:15.920Z,31.50
2018-10-19T09:48:21.261Z,31.48
2018-10-19T09:53:25.797Z,34.03
2018-10-19T09:58:30.895Z,31.85
2018-10-19T10:03:41.639Z,33.38
2018-10-19T10:08:52.606Z,33.33
2018-10-19T10:13:57.045Z,31.62
2018-10-19T10:19:01.626Z,30.70
2018-10-19T10:24:06.888Z,32.10
2018-10-19T10:29:11.543Z,30.72
2018-10-19T10:34:23.776Z,30.10
2018-10-19T10:39:28.896Z,30.88
2018-10-19T10:44:33.171Z,30.48
2018-10-19T10:49:37.740Z,31.60
2018-10-19T10:54:42.248Z,31.42
2018-10-19T10:59:47.003Z,31.37
2018-10-19T11:04:51.466Z,31.60
2018-10-19T11:09:56.181Z,30.20
2018-10-19T11:15:00.734Z,31.85
2018-10-19T11:20:06.483Z,30.32
2018-10-19T11:25:11.214Z,31.45
2018-10-19T11:30:15.814Z,31.50
2018-10-19T11:35:20.256Z,30.77
2018-10-19T11:40:28.555Z,31.95
2018-10-19T11:45:33.784Z,32.25
2018-10-19T11:50:38.935Z,32.40
2018-10-19T11:55:44.440Z,31.00
2018-10-19T12:00:49.211Z,30.05
2018-10-19T12:05:53.574Z,30.90
2018-10-19T12:10:58.579Z,31.55
2018-10-19T12:16:03.539Z,32.70
2018-10-19T12:21:08.652Z,30.17
2018-10-19T12:26:13.379Z,31.62
2018-10-19T12:31:18.234Z,31.97
2018-10-19T12:36:22.890Z,31.62
2018-10-19T12:41:27.425Z,32.58
2018-10-19T12:46:44.188Z,31.35
2018-10-19T12:51:49.822Z,30.23
2018-10-19T12:56:54.226Z,33.18
2018-10-19T13:01:58.718Z,31.33
2018-10-19T13:07:04.796Z,31.80
2018-10-19T13:12:09.273Z,26.82
2018-10-19T13:17:13.691Z,28.85
2018-10-19T13:22:18.818Z,32.58
2018-10-19T13:27:23.302Z,29.87
2018-10-19T13:32:27.826Z,30.37
2018-10-19T13:37:32.417Z,29.60
2018-10-19T13:42:36.938Z,29.37
2018-10-19T13:47:42.115Z,26.52
2018-10-19T13:52:46.708Z,30.45
2018-10-19T13:57:51.634Z,25.97
2018-10-19T14:02:57.012Z,31.40
2018-10-19T14:08:01.316Z,32.55
2018-10-19T14:13:06.161Z,31.15
2018-10-19T14:18:11.215Z,31.68
2018-10-19T14:23:15.746Z,31.42
2018-10-19T14:28:19.989Z,33.33
2018-10-19T14:33:24.561Z,33.95
2018-10-19T14:38:28.753Z,34.92
2018-10-19T14:43:33.069Z,31.50
2018-10-19T14:48:38.025Z,32.35
2018-10-19T14:53:42.403Z,32.15
2018-10-19T14:58:46.753Z,31.80
2018-10-19T15:03:51.182Z,33.85
2018-10-19T15:08:55.623Z,32.67
2018-10-19T15:13:59.964Z,32.38
2018-10-19T15:19:04.735Z,31.07
2018-10-19T15:24:09.160Z,32.30
2018-10-19T15:29:13.448Z,31.52
2018-10-19T15:34:17.744Z,31.85
2018-10-19T15:39:22.773Z,31.52
2018-10-19T15:44:27.251Z,31.73
2018-10-19T15:49:32.214Z,31.33
2018-10-19T15:54:36.637Z,28.52
2018-10-19T15:59:40.934Z,31.85
2018-10-19T16:04:46.053Z,31.15
2018-10-19T16:09:50.303Z,31.10
2018-10-19T16:14:54.860Z,33.00
2018-10-19T16:19:59.903Z,32.48
2018-10-19T16:25:04.893Z,32.10
2018-10-19T16:30:11.041Z,35.48
2018-10-19T16:35:15.611Z,35.83
2018-10-19T16:40:20.085Z,32.73
2018-10-19T16:45:24.693Z,36.90
2018-10-19T16:50:29.625Z,35.83
2018-10-19T16:55:35.209Z,36.10
2018-10-19T17:00:39.719Z,36.15
2018-10-19T17:05:44.120Z,36.80
2018-10-19T17:10:48.474Z,38.48
2018-10-19T17:15:53.518Z,38.53
2018-10-19T17:20:58.029Z,39.23
2018-10-19T17:26:02.736Z,40.85
2018-10-19T17:31:07.203Z,40.33
2018-10-19T17:36:11.523Z,42.17
2018-10-19T17:41:16.529Z,41.65
2018-10-19T17:46:20.872Z,41.45
2018-10-19T17:51:25.347Z,42.08
2018-10-19T17:56:30.187Z,42.78
2018-10-19T18:01:34.736Z,42.27
2018-10-19T18:06:39.573Z,43.10
2018-10-19T18:11:44.204Z,43.15
2018-10-19T18:16:48.516Z,42.35
2018-10-19T18:21:53.111Z,43.08
2018-10-19T18:26:58.072Z,43.60
2018-10-19T18:32:02.477Z,43.23
2018-10-19T18:37:07.377Z,43.08
2018-10-19T18:42:11.616Z,40.92
2018-10-19T18:47:16.195Z,42.80
2018-10-19T18:52:20.423Z,38.00
2018-10-19T18:57:24.906Z,35.35
2018-10-19T19:02:29.113Z,37.38
2018-10-19T19:07:33.345Z,36.58
2018-10-19T19:12:37.828Z,35.65
2018-10-19T19:17:42.756Z,33.60
2018-10-19T19:22:47.066Z,36.68
2018-10-19T19:27:52.359Z,36.50
2018-10-19T19:33:01.954Z,44.65
2018-10-19T19:38:06.578Z,38.90
2018-10-19T19:43:11.052Z,38.78
2018-10-19T19:48:20.671Z,34.48
2018-10-19T19:53:25.801Z,36.08
2018-10-19T19:58:31.134Z,36.38
2018-10-19T20:03:35.366Z,43.30
2018-10-19T20:08:39.631Z,45.70
2018-10-19T20:13:44.013Z,47.53
2018-10-19T20:18:48.450Z,50.48
2018-10-19T20:23:52.958Z,46.05
2018-10-19T20:28:57.469Z,49.35
2018-10-19T20:34:01.844Z,44.13
2018-10-19T20:39:08.792Z,47.13
2018-10-19T20:44:13.260Z,46.30
2018-10-19T20:49:17.598Z,46.00
2018-10-19T20:54:22.453Z,45.55
2018-10-19T20:59:26.919Z,46.33
2018-10-19T21:04:31.473Z,48.85
2018-10-19T21:09:35.942Z,49.10
2018-10-19T21:14:40.322Z,50.75
2018-10-19T21:19:44.786Z,51.90
2018-10-19T21:24:49.136Z,55.45
2018-10-19T21:29:53.666Z,60.63
2018-10-19T21:34:58.166Z,63.42
2018-10-19T21:40:02.756Z,58.45
2018-10-19T21:45:08.025Z,62.20
2018-10-19T21:50:13.157Z,59.80
2018-10-19T21:55:17.557Z,61.92
2018-10-19T22:00:22.552Z,62.25
2018-10-19T22:05:26.922Z,60.43
2018-10-19T22:10:31.549Z,57.10
2018-10-19T22:15:35.875Z,62.80
2018-10-19T22:20:40.337Z,62.15
2018-10-19T22:25:44.715Z,62.35
2018-10-19T22:30:49.150Z,60.10
2018-10-19T22:35:53.500Z,60.78
2018-10-19T22:40:58.056Z,55.73
2018-10-19T22:46:02.552Z,56.18
2018-10-19T22:51:07.621Z,56.45
2018-10-19T22:56:11.968Z,51.73
2018-10-19T23:01:17.367Z,49.93
2018-10-19T23:06:22.480Z,48.48
2018-10-19T23:11:27.041Z,54.10
2018-10-19T23:16:31.766Z,53.98
2018-10-19T23:21:36.636Z,53.05
2018-10-19T23:26:41.180Z,55.25
2018-10-19T23:31:46.023Z,52.70
2018-10-19T23:36:50.438Z,53.00
2018-10-19T23:41:55.561Z,49.83
2018-10-19T23:47:00.110Z,52.58
2018-10-19T23:52:05.856Z,49.80
2018-10-19T23:57:10.360Z,48.78
